createdAt,value
2018-02-16T15:29:04.050Z,44.00
2018-02-16T15:30:04.041Z,43.35
2018-02-16T15:32:58.174Z,44.26
2018-02-16T15:34:51.312Z,45.20
2018-02-16T15:35:51.340Z,46.37
2018-02-16T15:37:44.381Z,45.03
2018-02-16T15:38:44.374Z,44.91
2018-02-16T15:40:37.446Z,46.77
2018-02-16T15:41:37.487Z,48.02
2018-02-16T15:44:30.521Z,50.95
2018-02-16T15:47:23.600Z,50.09
2018-02-16T15:49:17.661Z,50.85
2018-02-16T15:50:17.654Z,50.67
2018-02-16T15:53:10.826Z,49.64
2018-02-16T15:55:04.863Z,49.83
2018-02-16T15:56:04.848Z,49.83
2018-02-16T16:00:51.392Z,52.26
2018-02-16T16:01:51.112Z,52.83
2018-02-16T16:03:44.138Z,54.43
2018-02-16T16:04:44.150Z,55.35
2018-02-16T16:07:37.197Z,58.94
2018-02-16T16:08:37.213Z,59.61
2018-02-16T16:09:37.221Z,58.75
2018-02-16T16:10:38.048Z,58.78
2018-02-16T16:11:37.267Z,59.03
2018-02-16T16:12:37.282Z,58.75
2018-02-16T16:13:37.274Z,59.51
2018-02-16T16:14:37.298Z,60.27
2018-02-16T16:15:37.301Z,60.66
2018-02-16T16:16:37.335Z,60.46
2018-02-16T16:17:37.320Z,60.56
2018-02-16T16:18:37.377Z,60.75
2018-02-16T16:19:37.345Z,60.66
2018-02-16T16:20:37.351Z,60.37
2018-02-16T16:21:37.377Z,60.18
2018-02-16T16:22:37.378Z,60.75
2018-02-16T16:23:37.392Z,60.66
2018-02-16T16:24:37.459Z,61.29
2018-02-16T16:25:37.409Z,62.15
2018-02-16T16:26:37.438Z,62.62
2018-02-16T16:27:37.469Z,63.29
2018-02-16T16:28:37.441Z,63.29
2018-02-16T16:29:37.446Z,63.35
2018-02-16T16:30:37.474Z,63.64
2018-02-16T16:31:37.470Z,64.21
2018-02-16T16:32:37.484Z,64.59
2018-02-16T16:33:38.052Z,64.69
2018-02-16T16:34:37.505Z,64.87
2018-02-16T16:35:37.508Z,65.54
2018-02-16T16:36:37.530Z,65.54
2018-02-16T16:37:37.531Z,66.36
2018-02-16T16:38:37.547Z,66.74
2018-02-16T16:39:37.568Z,67.41
2018-02-16T16:40:37.577Z,67.41
2018-02-16T16:41:37.577Z,68.04
2018-02-16T16:42:37.590Z,68.61
2018-02-16T16:43:37.654Z,69.18
2018-02-16T16:44:37.632Z,69.37
2018-02-16T16:45:37.617Z,70.13
2018-02-16T16:46:37.622Z,70.23
2018-02-16T16:47:37.653Z,70.70
2018-02-16T16:48:37.648Z,70.70
2018-02-16T16:49:37.660Z,70.51
2018-02-16T16:50:37.680Z,70.79
2018-02-16T16:51:37.674Z,70.70
2018-02-16T16:52:37.674Z,70.61
2018-02-16T16:53:37.691Z,70.89
2018-02-16T16:54:37.725Z,71.56
2018-02-16T16:55:37.732Z,71.27
2018-02-16T16:56:37.712Z,72.13
2018-02-16T16:57:37.715Z,71.75
2018-02-16T16:58:38.559Z,71.94
2018-02-16T16:59:37.746Z,72.03
2018-02-16T17:00:37.750Z,72.38
2018-02-16T17:01:37.773Z,72.38
2018-02-16T17:02:37.800Z,72.56
2018-02-16T17:03:37.796Z,72.95
2018-02-16T17:04:37.797Z,72.95
2018-02-16T17:05:37.803Z,73.23
2018-02-16T17:06:37.815Z,73.61
2018-02-16T17:07:37.821Z,73.52
2018-02-16T17:08:37.826Z,74.18
2018-02-16T17:09:37.835Z,74.66
2018-02-16T17:10:37.848Z,74.75
2018-02-16T17:11:37.855Z,74.56
2018-02-16T17:12:37.867Z,75.04
2018-02-16T17:13:37.872Z,75.23
2018-02-16T17:14:37.881Z,75.13
2018-02-16T17:15:37.898Z,75.38
2018-02-16T17:16:37.892Z,75.28
2018-02-16T17:17:37.914Z,75.47
2018-02-16T17:18:37.908Z,75.38
2018-02-16T17:19:37.916Z,75.76
2018-02-16T17:20:37.932Z,75.42
2018-02-16T17:21:38.014Z,75.19
2018-02-16T17:22:37.942Z,75.47
2018-02-16T17:23:37.946Z,75.76
2018-02-16T17:24:37.964Z,75.85
2018-02-16T17:25:38.018Z,76.42
2018-02-16T17:26:37.972Z,76.71
2018-02-16T17:27:38.009Z,76.90
2018-02-16T17:28:37.992Z,76.90
2018-02-16T17:29:38.023Z,76.32
2018-02-16T17:30:38.023Z,76.52
2018-02-16T17:31:38.079Z,76.99
2018-02-16T17:32:38.032Z,76.52
2018-02-16T17:33:38.032Z,76.90
2018-02-16T17:34:38.040Z,76.61
2018-02-16T17:35:38.064Z,77.09
2018-02-16T17:36:38.099Z,76.80
2018-02-16T17:37:38.071Z,76.80
2018-02-16T17:38:38.070Z,77.37
2018-02-16T17:39:38.099Z,77.28
2018-02-16T17:40:38.088Z,77.75
2018-02-16T17:41:38.116Z,77.56
2018-02-16T17:42:38.115Z,77.56
2018-02-16T17:43:38.134Z,77.94
2018-02-16T17:44:38.126Z,77.75
2018-02-16T17:45:38.145Z,77.56
2018-02-16T17:46:38.137Z,77.94
2018-02-16T17:47:38.155Z,78.13
2018-02-16T17:48:38.200Z,77.84
2018-02-16T17:49:38.159Z,78.13
2018-02-16T17:50:38.175Z,78.42
2018-02-16T17:51:38.194Z,78.89
2018-02-16T17:52:38.197Z,79.46
2018-02-16T17:53:38.197Z,79.55
2018-02-16T17:54:38.207Z,79.80
2018-02-16T17:55:38.216Z,79.74
2018-02-16T17:56:38.213Z,79.61
2018-02-16T17:57:38.232Z,79.71
2018-02-16T17:58:38.236Z,80.08
2018-02-16T17:59:38.269Z,79.99
2018-02-16T18:00:38.270Z,79.90
2018-02-16T18:01:38.261Z,80.18
2018-02-16T18:02:38.277Z,80.27
2018-02-16T18:03:38.277Z,80.37
2018-02-16T18:04:38.292Z,80.08
2018-02-16T18:05:38.306Z,80.56
2018-02-16T18:06:38.294Z,81.13
2018-02-16T18:07:38.312Z,81.13
2018-02-16T18:08:38.318Z,80.84
2018-02-16T18:09:38.322Z,81.04
2018-02-16T18:10:38.360Z,81.23
2018-02-16T18:11:38.342Z,81.23
2018-02-16T18:12:38.344Z,81.41
2018-02-16T18:13:38.343Z,81.70
2018-02-16T18:14:38.362Z,81.04
2018-02-16T18:15:38.375Z,81.23
2018-02-16T18:16:38.381Z,81.32
2018-02-16T18:17:38.405Z,81.70
2018-02-16T18:18:38.388Z,81.32
2018-02-16T18:19:38.393Z,81.41
2018-02-16T18:20:38.411Z,81.23
2018-02-16T18:21:38.416Z,81.70
2018-02-16T18:22:38.496Z,81.60
2018-02-16T18:23:38.434Z,81.60
2018-02-16T18:24:38.444Z,81.13
2018-02-16T18:25:38.439Z,81.23
2018-02-16T18:26:38.466Z,81.79
2018-02-16T18:27:38.471Z,81.79
2018-02-16T18:28:38.465Z,82.27
2018-02-16T18:29:38.469Z,82.08
2018-02-16T18:30:38.465Z,82.27
2018-02-16T18:31:38.498Z,82.27
2018-02-16T18:32:38.527Z,81.88
2018-02-16T18:33:38.520Z,82.27
2018-02-16T18:34:38.517Z,82.36
2018-02-16T18:35:38.529Z,82.17
2018-02-16T18:36:38.535Z,81.98
2018-02-16T18:37:38.559Z,81.88
2018-02-16T18:38:38.552Z,81.98
2018-02-16T18:39:38.549Z,81.94
2018-02-16T18:40:38.560Z,82.04
2018-02-16T18:41:38.569Z,82.23
2018-02-16T18:42:38.582Z,82.13
2018-02-16T18:43:38.584Z,82.13
2018-02-16T18:44:38.563Z,82.23
2018-02-16T18:45:38.596Z,82.51
2018-02-16T18:46:38.631Z,82.79
2018-02-16T18:47:38.613Z,82.70
2018-02-16T18:48:38.612Z,82.98
2018-02-16T18:49:38.614Z,82.70
2018-02-16T18:50:38.675Z,82.70
2018-02-16T18:51:38.656Z,82.79
2018-02-16T18:52:38.664Z,83.27
2018-02-16T18:53:38.635Z,82.89
2018-02-16T18:54:38.654Z,82.98
2018-02-16T18:55:38.663Z,82.42
2018-02-16T18:56:38.676Z,82.98
2018-02-16T18:57:38.702Z,82.79
2018-02-16T18:58:38.700Z,82.89
2018-02-16T18:59:38.691Z,82.89
2018-02-16T19:00:38.696Z,82.60
2018-02-16T19:01:38.705Z,83.55
2018-02-16T19:02:38.702Z,83.36
2018-02-16T19:03:38.707Z,83.27
2018-02-16T19:04:38.723Z,83.74
2018-02-16T19:05:38.732Z,83.65
2018-02-16T19:06:38.942Z,83.84
2018-02-16T19:07:38.743Z,83.65
2018-02-16T19:08:38.750Z,83.27
2018-02-16T19:09:38.750Z,84.12
2018-02-16T19:10:38.755Z,84.03
2018-02-16T19:11:38.771Z,83.74
2018-02-16T19:12:39.052Z,84.22
2018-02-16T19:13:38.779Z,84.12
2018-02-16T19:14:38.783Z,84.12
2018-02-16T19:15:38.838Z,83.84
2018-02-16T19:16:38.846Z,84.22
2018-02-16T19:17:38.823Z,84.03
2018-02-16T19:18:38.818Z,83.94
2018-02-16T19:19:38.875Z,84.22
2018-02-16T19:20:38.819Z,84.22
2018-02-16T19:21:39.312Z,84.41
2018-02-16T19:22:38.832Z,84.22
2018-02-16T19:23:38.915Z,84.03
2018-02-16T19:24:38.858Z,84.22
2018-02-16T19:25:38.880Z,84.59
2018-02-16T19:26:39.014Z,84.78
2018-02-16T19:27:38.883Z,84.88
2018-02-16T19:28:38.892Z,85.26
2018-02-16T19:29:38.902Z,85.26
2018-02-16T19:30:38.948Z,85.03
2018-02-16T19:31:38.926Z,85.45
2018-02-16T19:32:39.241Z,85.64
2018-02-16T19:33:38.949Z,85.55
2018-02-16T19:34:38.940Z,86.02
2018-02-16T19:35:38.999Z,85.88
2018-02-16T19:36:38.964Z,85.97
2018-02-16T19:37:38.944Z,85.69
2018-02-16T19:38:38.938Z,85.97
2018-02-16T19:39:38.954Z,85.88
2018-02-16T19:40:38.961Z,85.78
2018-02-16T19:41:38.984Z,86.26
2018-02-16T19:42:38.969Z,86.16
2018-02-16T19:43:38.983Z,86.07
2018-02-16T19:44:39.000Z,86.16
2018-02-16T19:45:38.992Z,85.88
2018-02-16T19:46:39.058Z,86.83
2018-02-16T19:47:39.029Z,86.07
2018-02-16T19:48:39.007Z,86.45
2018-02-16T19:49:39.008Z,87.02
2018-02-16T19:50:39.139Z,86.74
2018-02-16T19:51:39.139Z,86.07
2018-02-16T19:52:39.277Z,86.55
2018-02-16T19:53:39.027Z,86.93
2018-02-16T19:54:39.049Z,86.55
2018-02-16T19:55:39.064Z,86.93
2018-02-16T19:56:39.244Z,86.74
2018-02-16T19:57:39.189Z,87.12
2018-02-16T19:58:39.078Z,86.83
2018-02-16T19:59:39.154Z,86.83
2018-02-16T20:00:39.077Z,86.93
2018-02-16T20:01:39.105Z,86.55
2018-02-16T20:02:39.086Z,86.83
2018-02-16T20:03:39.114Z,86.83
2018-02-16T20:04:39.239Z,86.64
2018-02-16T20:05:39.112Z,87.02
2018-02-16T20:06:39.116Z,87.12
2018-02-16T20:07:39.123Z,86.74
2018-02-16T20:08:39.128Z,86.93
2018-02-16T20:09:39.132Z,87.49
2018-02-16T20:10:39.151Z,87.12
2018-02-16T20:11:39.164Z,87.97
2018-02-16T20:12:39.162Z,87.87
2018-02-16T20:13:39.157Z,88.35
2018-02-16T20:14:39.179Z,88.35
2018-02-16T20:15:39.174Z,88.54
2018-02-16T20:16:39.171Z,88.54
2018-02-16T20:17:39.186Z,89.01
2018-02-16T20:18:39.254Z,88.92
2018-02-16T20:19:39.275Z,89.01
2018-02-16T20:20:39.206Z,89.39
2018-02-16T20:21:39.205Z,89.29
2018-02-16T20:22:39.216Z,89.01
2018-02-16T20:23:39.218Z,89.39
2018-02-16T20:24:39.238Z,89.48
2018-02-16T20:25:39.230Z,89.20
2018-02-16T20:26:39.235Z,88.82
2018-02-16T20:27:39.247Z,89.01
2018-02-16T20:28:39.259Z,89.01
2018-02-16T20:29:39.258Z,88.73
2018-02-16T20:31:39.276Z,88.73
2018-02-16T20:32:39.283Z,88.54
2018-02-16T20:33:39.290Z,88.54
2018-02-16T20:35:39.296Z,88.63
2018-02-16T20:36:39.293Z,89.20
2018-02-16T20:37:39.308Z,88.82
2018-02-16T20:38:39.323Z,88.92
2018-02-16T20:39:39.325Z,89.20
2018-02-16T20:40:39.351Z,89.01
2018-02-16T20:42:55.592Z,89.29
2018-02-16T21:00:42.793Z,90.86
2018-02-16T21:01:42.837Z,90.77
2018-02-16T21:02:42.853Z,90.86
2018-02-16T21:03:42.814Z,91.33
2018-02-16T21:04:42.817Z,91.14
2018-02-16T21:05:42.844Z,91.14
2018-02-16T21:06:42.831Z,91.00
2018-02-16T21:07:42.835Z,90.48
2018-02-16T21:08:42.844Z,90.39
2018-02-16T21:09:42.889Z,90.67
2018-02-16T21:10:42.866Z,90.95
2018-02-16T21:11:42.905Z,90.58
2018-02-16T21:12:42.877Z,91.05
2018-02-16T21:13:42.861Z,91.14
2018-02-16T21:14:42.885Z,91.33
2018-02-16T21:15:42.877Z,91.43
2018-02-16T21:16:42.898Z,91.62
2018-02-16T21:17:42.908Z,91.71
2018-02-16T21:18:42.944Z,91.52
2018-02-16T21:19:43.152Z,90.95
2018-02-16T21:20:42.911Z,90.81
2018-02-16T21:21:42.924Z,91.09
2018-02-16T21:22:42.922Z,90.34
2018-02-16T21:23:42.929Z,91.00
2018-02-16T21:24:42.942Z,90.77
2018-02-16T21:25:42.939Z,90.67
2018-02-16T21:26:42.947Z,91.19
2018-02-16T21:27:42.953Z,91.24
2018-02-16T21:28:42.953Z,91.24
2018-02-16T21:29:42.976Z,91.52
2018-02-16T21:30:42.975Z,91.62
2018-02-16T21:31:42.970Z,91.52
2018-02-16T21:32:42.975Z,91.43
2018-02-16T21:33:43.001Z,91.14
2018-02-16T21:34:43.001Z,91.33
2018-02-16T21:35:43.001Z,91.24
2018-02-16T21:36:43.004Z,91.24
2018-02-16T21:37:43.010Z,91.05
2018-02-16T21:38:43.025Z,91.05
2018-02-16T21:39:43.020Z,91.62
2018-02-16T21:40:43.040Z,91.52
2018-02-16T21:41:43.038Z,91.71
2018-02-16T21:42:43.054Z,92.09
2018-02-16T21:43:43.063Z,92.47
2018-02-16T21:44:43.068Z,92.66
2018-02-16T21:45:43.062Z,93.04
2018-02-16T21:46:43.078Z,93.51
2018-02-16T21:47:43.074Z,93.23
2018-02-16T21:48:43.079Z,93.70
2018-02-16T21:49:43.084Z,93.42
2018-02-16T21:50:43.083Z,94.08
2018-02-16T21:51:43.090Z,94.65
2018-02-16T21:52:43.102Z,94.84
2018-02-16T21:53:43.126Z,94.27
2018-02-16T21:54:43.121Z,95.12
2018-02-16T21:55:43.123Z,95.03
2018-02-16T21:56:43.121Z,95.41
2018-02-16T21:57:43.121Z,95.64
2018-02-16T21:58:43.132Z,95.45
2018-02-16T21:59:43.173Z,95.60
2018-02-16T22:00:43.144Z,95.64
2018-02-16T22:01:43.151Z,95.55
2018-02-16T22:02:43.155Z,95.74
2018-02-16T22:03:43.161Z,95.64
2018-02-16T22:04:43.164Z,96.02
2018-02-16T22:05:43.166Z,95.64
2018-02-16T22:06:43.185Z,95.69
2018-02-16T22:07:43.177Z,95.98
2018-02-16T22:08:43.203Z,95.64
2018-02-16T22:09:43.214Z,95.64
2018-02-16T22:10:43.311Z,95.93
2018-02-16T22:11:43.206Z,95.45
2018-02-16T22:12:43.220Z,95.93
2018-02-16T22:13:43.233Z,95.74
2018-02-16T22:14:43.238Z,95.36
2018-02-16T22:15:43.228Z,95.17
2018-02-16T22:16:43.241Z,95.26
2018-02-16T22:17:43.253Z,95.64
2018-02-16T22:18:43.254Z,95.45
2018-02-16T22:19:43.253Z,95.83
2018-02-16T22:20:43.269Z,95.74
2018-02-16T22:21:43.256Z,96.12
2018-02-16T22:22:43.282Z,96.69
2018-02-16T22:23:43.310Z,96.69
2018-02-16T22:24:43.321Z,97.63
2018-02-16T22:25:43.279Z,97.54
2018-02-16T22:26:43.298Z,97.73
2018-02-16T22:27:43.290Z,98.01
2018-02-16T22:28:43.327Z,98.30
2018-02-16T22:29:43.301Z,98.20
2018-02-16T22:30:43.329Z,98.86
2018-02-16T22:31:43.345Z,98.77
2018-02-16T22:32:43.344Z,98.86
2018-02-16T22:33:43.356Z,98.77
2018-02-16T22:34:43.339Z,98.86
2018-02-16T22:35:43.346Z,98.86
2018-02-16T22:36:43.382Z,98.86
2018-02-16T22:37:43.356Z,98.77
2018-02-16T22:38:43.356Z,98.86
2018-02-16T22:39:43.366Z,99.43
2018-02-16T22:40:43.368Z,99.43
2018-02-16T22:41:43.383Z,98.39
2018-02-16T22:42:43.384Z,98.68
2018-02-16T22:43:43.389Z,98.96
2018-02-16T22:44:43.392Z,98.39
2018-02-16T22:45:43.406Z,98.30
2018-02-16T22:46:43.398Z,98.20
2018-02-16T22:47:43.399Z,98.01
2018-02-16T22:48:43.412Z,98.11
2018-02-16T22:49:43.417Z,97.54
2018-02-16T22:50:43.415Z,96.97
2018-02-16T22:51:43.461Z,97.54
2018-02-16T22:52:43.426Z,96.97
2018-02-16T22:53:43.435Z,96.78
2018-02-16T22:54:43.441Z,96.69
2018-02-16T22:55:43.446Z,96.88
2018-02-16T22:56:43.499Z,96.97
2018-02-16T22:57:43.459Z,97.44
2018-02-16T22:58:43.461Z,97.25
2018-02-16T22:59:43.467Z,97.54
2018-02-16T23:00:43.476Z,98.39
2018-02-16T23:01:43.552Z,98.39
2018-02-16T23:02:43.483Z,98.20
2018-02-16T23:03:43.493Z,98.20
2018-02-16T23:04:43.504Z,98.20
2018-02-16T23:05:43.527Z,98.20
2018-02-16T23:06:43.517Z,98.01
2018-02-16T23:07:43.522Z,98.58
2018-02-16T23:08:43.547Z,98.30
2018-02-16T23:09:43.525Z,98.30
2018-02-16T23:10:43.544Z,98.11
2018-02-16T23:11:43.545Z,98.11
2018-02-16T23:12:43.545Z,98.11
2018-02-16T23:13:43.564Z,97.82
2018-02-16T23:14:43.570Z,98.01
2018-02-16T23:15:43.586Z,98.11
2018-02-16T23:16:43.590Z,98.20
2018-02-16T23:17:44.083Z,98.11
2018-02-16T23:18:43.571Z,98.20
2018-02-16T23:19:43.601Z,97.73
2018-02-16T23:20:43.585Z,97.73
2018-02-16T23:21:43.600Z,97.35
2018-02-16T23:22:43.590Z,97.44
2018-02-16T23:23:43.594Z,97.35
2018-02-16T23:24:43.600Z,97.35
2018-02-16T23:25:43.628Z,97.35
2018-02-16T23:26:43.610Z,97.54
2018-02-16T23:27:43.648Z,97.82
2018-02-16T23:28:43.644Z,98.11
2018-02-16T23:29:43.615Z,98.11
2018-02-16T23:30:43.639Z,98.30
2018-02-16T23:31:43.684Z,98.39
2018-02-16T23:32:43.645Z,98.49
2018-02-16T23:33:43.647Z,98.20
2018-02-16T23:34:43.683Z,98.20
2018-02-16T23:35:43.693Z,98.77
2018-02-16T23:36:43.695Z,98.68
2018-02-16T23:37:43.670Z,98.53
2018-02-16T23:38:43.681Z,98.53
2018-02-16T23:39:43.690Z,98.34
2018-02-16T23:40:43.697Z,99.24
2018-02-16T23:41:43.792Z,99.57
2018-02-16T23:42:43.674Z,99.38
2018-02-16T23:43:43.660Z,99.33
2018-02-16T23:44:43.732Z,99.57
2018-02-16T23:45:43.753Z,99.15
2018-02-16T23:46:43.668Z,99.66
2018-02-16T23:47:43.712Z,99.57
2018-02-16T23:48:43.685Z,99.43
2018-02-16T23:49:43.681Z,99.10
2018-02-16T23:50:43.695Z,99.57
2018-02-16T23:51:43.765Z,99.19
2018-02-16T23:52:43.703Z,99.38
2018-02-16T23:53:43.702Z,99.43
2018-02-16T23:54:43.768Z,99.15
2018-02-16T23:55:43.734Z,98.96
2018-02-16T23:56:45.063Z,99.05
2018-02-16T23:57:43.799Z,98.68
2018-02-16T23:58:43.809Z,98.96
2018-02-16T23:59:43.749Z,98.86
